logo
Rechercher aéroport 
image banner adimage banner adimage banner ad
image banner ad

EPPI - Pila

Situé à , Poland

ICAO - EPPI, IATA -

Données fournies par Airmate  

Information générale

Coordonnées: N53°10'11" E16°42'38"
Élévation : 279 feet MSL.
Variation magnétique : 4.0000° East
Voir autres Aéroports à Greater Poland

Données opérationnelles

Special qualification required
Heure actuelle UTC:
Heure actuelle locale:
Météo à : EPMI - Miroslawiec ( 49 km )
TAF: TAF EPMI 231700Z 2318/2406 15004KT CAVOK TEMPO 2321/2406 6000 -SHRA BKN012 BKN020CB PROB30 TEMPO 2400/2406 3000 BR BECMG 2402/2405 25010KT
Voir NOTAMs / SUP AIP / TFR affectant cet aéroport [VIEW]
Fréquences de communication: [VIEW]

Pistes:

Identifiant RWYQFULongueur (ft)Largeur (ft)SurfaceLDA (ft)
0994°2133262GRASS2133
27274°2133262GRASS1312
0338°7874197CONC+ASPH7874
21218°7874197CONC+ASPH7874

Coordonnées de l'aéroport

Adresse: Poland

Autres services d'aviation

Clubs d'aviation (sans but lucratif)

Aeroklub Ziemi Pilskiej

Aeroklub Ziemi Pilskiej
slawomir.palus@azp.pila.pl+48606765402
+48606765402

Vue satellite de EPPI